Time,TemperatureF,DewpointF,PressureIn,WindDirection,WindDirectionDegrees,WindSpeedMPH,WindSpeedGustMPH,Humidity,HourlyPrecipIn,Conditions,Clouds,dailyrainin,SoftwareType,DateUTC
2013-06-04 00:03:00,57.5,53.0,30.01,NNW,336,0.0,0.0,86,0.00,,,0.00,weatherlink.com 1.10,2013-06-04 04:03:00,
2013-06-04 00:18:00,57.3,53.0,30.01,NNW,336,0.0,0.0,86,0.00,,,0.00,weatherlink.com 1.10,2013-06-04 04:18:00,
2013-06-04 00:33:00,57.0,53.0,30.01,NNW,336,0.0,0.0,87,0.00,,,0.00,weatherlink.com 1.10,2013-06-04 04:33:00,
2013-06-04 00:49:00,56.7,53.0,30.01,NNW,336,0.0,0.0,86,0.00,,,0.00,weatherlink.com 1.10,2013-06-04 04:49:00,
2013-06-04 01:04:00,56.5,53.0,30.02,NNW,336,0.0,0.0,87,0.00,,,0.00,weatherlink.com 1.10,2013-06-04 05:04:00,
2013-06-04 01:19:00,56.2,52.0,30.02,NNW,336,0.0,0.0,87,0.00,,,0.00,weatherlink.com 1.10,2013-06-04 05:19:00,
2013-06-04 01:34:00,55.8,52.0,30.02,NNW,336,0.0,0.0,88,0.00,,,0.00,weatherlink.com 1.10,2013-06-04 05:34:00,
2013-06-04 01:49:00,55.4,52.0,30.02,NNW,336,0.0,0.0,89,0.00,,,0.00,weatherlink.com 1.10,2013-06-04 05:49:00,
2013-06-04 02:04:00,55.3,52.0,30.03,NNW,336,0.0,0.0,89,0.00,,,0.00,weatherlink.com 1.10,2013-06-04 06:04:00,
2013-06-04 02:19:00,54.9,52.0,30.03,NNW,336,0.0,0.0,89,0.00,,,0.00,weatherlink.com 1.10,2013-06-04 06:19:00,
2013-06-04 02:34:00,54.5,52.0,30.03,NNW,336,0.0,0.0,90,0.00,,,0.00,weatherlink.com 1.10,2013-06-04 06:34:00,
2013-06-04 02:49:00,54.3,52.0,30.03,NNW,336,0.0,0.0,90,0.00,,,0.00,weatherlink.com 1.10,2013-06-04 06:49:00,
2013-06-04 03:04:00,54.1,52.0,30.02,NNW,336,0.0,0.0,91,0.00,,,0.00,weatherlink.com 1.10,2013-06-04 07:04:00,
2013-06-04 03:19:00,53.6,51.0,30.03,NNW,336,0.0,0.0,91,0.00,,,0.00,weatherlink.com 1.10,2013-06-04 07:19:00,
2013-06-04 03:34:00,53.6,51.0,30.03,NNW,336,0.0,0.0,92,0.00,,,0.00,weatherlink.com 1.10,2013-06-04 07:34:00,
2013-06-04 03:49:00,53.4,51.0,30.04,NNW,336,0.0,0.0,92,0.00,,,0.00,weatherlink.com 1.10,2013-06-04 07:49:00,
2013-06-04 04:04:00,53.1,51.0,30.04,NNW,336,0.0,0.0,92,0.00,,,0.00,weatherlink.com 1.10,2013-06-04 08:04:00,
2013-06-04 04:19:00,53.0,51.0,30.05,NNW,336,0.0,0.0,93,0.00,,,0.00,weatherlink.com 1.10,2013-06-04 08:19:00,
2013-06-04 04:34:00,52.9,51.0,30.05,NNW,336,0.0,0.0,93,0.00,,,0.00,weatherlink.com 1.10,2013-06-04 08:34:00,
2013-06-04 04:49:00,52.7,51.0,30.05,NNW,336,0.0,0.0,93,0.00,,,0.00,weatherlink.com 1.10,2013-06-04 08:49:00,
2013-06-04 05:04:00,52.6,51.0,30.05,NNW,336,0.0,0.0,93,0.00,,,0.00,weatherlink.com 1.10,2013-06-04 09:04:00,
2013-06-04 05:19:00,52.4,51.0,30.06,NNW,336,0.0,0.0,93,0.00,,,0.00,weatherlink.com 1.10,2013-06-04 09:19:00,
2013-06-04 05:34:00,52.2,50.0,30.06,NNW,336,0.0,0.0,93,0.00,,,0.00,weatherlink.com 1.10,2013-06-04 09:34:00,
2013-06-04 05:49:00,52.1,50.0,30.06,NNW,336,0.0,0.0,93,0.00,,,0.00,weatherlink.com 1.10,2013-06-04 09:49:00,
2013-06-04 06:04:00,51.9,50.0,30.07,NNW,336,0.0,0.0,92,0.00,,,0.00,weatherlink.com 1.10,2013-06-04 10:04:00,
2013-06-04 06:19:00,51.8,50.0,30.07,NNW,336,0.0,0.0,92,0.00,,,0.00,weatherlink.com 1.10,2013-06-04 10:19:00,
2013-06-04 06:34:00,51.7,50.0,30.07,NNW,336,0.0,0.0,92,0.00,,,0.00,weatherlink.com 1.10,2013-06-04 10:34:00,
2013-06-04 06:49:00,51.8,50.0,30.08,NNW,336,0.0,0.0,92,0.00,,,0.00,weatherlink.com 1.10,2013-06-04 10:49:00,
2013-06-04 07:04:00,52.0,50.0,30.08,NNW,336,0.0,0.0,91,0.00,,,0.00,weatherlink.com 1.10,2013-06-04 11:04:00,
2013-06-04 07:19:00,52.4,50.0,30.08,NNW,336,0.0,0.0,92,0.00,,,0.00,weatherlink.com 1.10,2013-06-04 11:19:00,
2013-06-04 07:34:00,53.0,50.0,30.08,NNW,336,0.0,0.0,90,0.00,,,0.00,weatherlink.com 1.10,2013-06-04 11:34:00,
2013-06-04 07:49:00,53.8,50.0,30.08,NNW,336,0.0,0.0,88,0.00,,,0.00,weatherlink.com 1.10,2013-06-04 11:49:00,
2013-06-04 08:04:00,54.6,50.0,30.09,NNW,336,0.0,0.0,85,0.00,,,0.00,weatherlink.com 1.10,2013-06-04 12:04:00,
2013-06-04 08:19:00,55.5,50.0,30.09,NNW,336,0.0,0.0,81,0.00,,,0.00,weatherlink.com 1.10,2013-06-04 12:19:00,
2013-06-04 08:34:00,56.4,49.0,30.10,NNW,336,0.0,1.0,77,0.00,,,0.00,weatherlink.com 1.10,2013-06-04 12:34:00,
2013-06-04 08:49:00,57.3,49.0,30.11,NNW,336,0.0,0.0,75,0.00,,,0.00,weatherlink.com 1.10,2013-06-04 12:49:00,
2013-06-04 09:04:00,58.0,49.0,30.10,NNW,336,0.0,1.0,72,0.00,,,0.00,weatherlink.com 1.10,2013-06-04 13:04:00,
2013-06-04 09:19:00,58.9,49.0,30.10,NNW,336,0.0,0.0,70,0.00,,,0.00,weatherlink.com 1.10,2013-06-04 13:19:00,
2013-06-04 09:34:00,59.7,49.0,30.09,NNW,336,0.0,0.0,68,0.00,,,0.00,weatherlink.com 1.10,2013-06-04 13:34:00,
2013-06-04 09:49:00,60.9,49.0,30.09,NNW,336,1.0,1.0,64,0.00,,,0.00,weatherlink.com 1.10,2013-06-04 13:49:00,
2013-06-04 10:04:00,61.6,49.0,30.09,NNW,336,0.0,2.0,64,0.00,,,0.00,weatherlink.com 1.10,2013-06-04 14:04:00,
2013-06-04 10:19:00,62.3,48.0,30.09,NNW,336,0.0,1.0,59,0.00,,,0.00,weatherlink.com 1.10,2013-06-04 14:19:00,
2013-06-04 10:34:00,62.8,48.0,30.09,NNW,338,0.0,1.0,58,0.00,,,0.00,weatherlink.com 1.10,2013-06-04 14:34:00,
2013-06-04 10:49:00,63.7,48.0,30.09,NNW,339,0.0,1.0,58,0.00,,,0.00,weatherlink.com 1.10,2013-06-04 14:49:00,
2013-06-04 11:04:00,64.7,47.0,30.09,SE,142,0.0,1.0,53,0.00,,,0.00,weatherlink.com 1.10,2013-06-04 15:04:00,
2013-06-04 11:20:00,65.3,48.0,30.10,East,85,1.0,2.0,54,0.00,,,0.00,weatherlink.com 1.10,2013-06-04 15:20:00,
2013-06-04 11:35:00,65.7,48.0,30.10,ESE,123,0.0,2.0,54,0.00,,,0.00,weatherlink.com 1.10,2013-06-04 15:35:00,
2013-06-04 11:50:00,66.5,47.0,30.10,South,178,0.0,2.0,50,0.00,,,0.00,weatherlink.com 1.10,2013-06-04 15:50:00,
2013-06-04 12:05:00,67.1,49.0,30.09,North,351,0.0,2.0,53,0.00,,,0.00,weatherlink.com 1.10,2013-06-04 16:05:00,
2013-06-04 12:20:00,67.5,51.0,30.09,NNE,19,0.0,2.0,55,0.00,,,0.00,weatherlink.com 1.10,2013-06-04 16:20:00,
2013-06-04 12:35:00,67.9,47.0,30.09,North,360,0.0,3.0,47,0.00,,,0.00,weatherlink.com 1.10,2013-06-04 16:35:00,
2013-06-04 12:50:00,68.3,45.0,30.09,SE,141,0.0,3.0,44,0.00,,,0.00,weatherlink.com 1.10,2013-06-04 16:50:00,
2013-06-04 13:05:00,68.9,49.0,30.09,SE,138,0.0,1.0,49,0.00,,,0.00,weatherlink.com 1.10,2013-06-04 17:05:00,
2013-06-04 13:20:00,69.6,47.0,30.09,NNW,340,1.0,4.0,45,0.00,,,0.00,weatherlink.com 1.10,2013-06-04 17:20:00,
2013-06-04 13:35:00,70.1,47.0,30.08,NNW,337,1.0,2.0,44,0.00,,,0.00,weatherlink.com 1.10,2013-06-04 17:35:00,
2013-06-04 13:50:00,70.5,49.0,30.08,NNW,347,0.0,2.0,46,0.00,,,0.00,weatherlink.com 1.10,2013-06-04 17:50:00,
2013-06-04 14:05:00,70.9,50.0,30.07,NNW,348,0.0,2.0,47,0.00,,,0.00,weatherlink.com 1.10,2013-06-04 18:05:00,
2013-06-04 14:20:00,71.4,45.0,30.06,NNW,345,0.0,3.0,39,0.00,,,0.00,weatherlink.com 1.10,2013-06-04 18:20:00,
2013-06-04 14:35:00,71.5,44.0,30.06,NNW,346,0.0,2.0,37,0.00,,,0.00,weatherlink.com 1.10,2013-06-04 18:35:00,
2013-06-04 14:50:00,71.7,41.0,30.05,SSE,148,0.0,1.0,33,0.00,,,0.00,weatherlink.com 1.10,2013-06-04 18:50:00,
2013-06-04 15:05:00,72.0,44.0,30.05,North,11,1.0,2.0,37,0.00,,,0.00,weatherlink.com 1.10,2013-06-04 19:05:00,
2013-06-04 15:20:00,72.2,49.0,30.04,ESE,122,1.0,1.0,44,0.00,,,0.00,weatherlink.com 1.10,2013-06-04 19:20:00,
2013-06-04 15:35:00,72.8,44.0,30.04,NE,46,0.0,1.0,35,0.00,,,0.00,weatherlink.com 1.10,2013-06-04 19:35:00,
2013-06-04 15:50:00,73.2,48.0,30.04,NE,45,0.0,1.0,41,0.00,,,0.00,weatherlink.com 1.10,2013-06-04 19:50:00,
2013-06-04 16:05:00,73.2,50.0,30.04,NNE,15,1.0,1.0,44,0.00,,,0.00,weatherlink.com 1.10,2013-06-04 20:05:00,
2013-06-04 16:20:00,73.4,46.0,30.04,East,85,0.0,1.0,38,0.00,,,0.00,weatherlink.com 1.10,2013-06-04 20:20:00,
2013-06-04 16:35:00,73.7,48.0,30.04,SE,136,0.0,2.0,40,0.00,,,0.00,weatherlink.com 1.10,2013-06-04 20:35:00,
2013-06-04 16:50:00,73.6,50.0,30.04,SE,124,0.0,1.0,43,0.00,,,0.00,weatherlink.com 1.10,2013-06-04 20:50:00,
2013-06-04 17:05:00,73.6,48.0,30.04,SE,125,0.0,1.0,40,0.00,,,0.00,weatherlink.com 1.10,2013-06-04 21:05:00,
2013-06-04 17:20:00,73.8,45.0,30.04,NE,51,0.0,0.0,36,0.00,,,0.00,weatherlink.com 1.10,2013-06-04 21:20:00,
2013-06-04 17:35:00,73.9,49.0,30.03,NE,51,0.0,1.0,41,0.00,,,0.00,weatherlink.com 1.10,2013-06-04 21:35:00,
2013-06-04 17:50:00,74.0,47.0,30.03,NE,51,0.0,2.0,38,0.00,,,0.00,weatherlink.com 1.10,2013-06-04 21:50:00,
2013-06-04 18:05:00,74.0,47.0,30.02,ENE,66,0.0,1.0,38,0.00,,,0.00,weatherlink.com 1.10,2013-06-04 22:05:00,
2013-06-04 18:20:00,74.2,44.0,30.03,NNW,332,0.0,0.0,34,0.00,,,0.00,weatherlink.com 1.10,2013-06-04 22:20:00,
2013-06-04 18:35:00,74.0,49.0,30.02,NNW,332,0.0,0.0,41,0.00,,,0.00,weatherlink.com 1.10,2013-06-04 22:35:00,
2013-06-04 18:50:00,73.7,46.0,30.03,NNW,332,0.0,0.0,37,0.00,,,0.00,weatherlink.com 1.10,2013-06-04 22:50:00,
2013-06-04 19:05:00,73.3,45.0,30.02,NNW,332,0.0,0.0,36,0.00,,,0.00,weatherlink.com 1.10,2013-06-04 23:05:00,
2013-06-04 19:20:00,73.6,48.0,30.02,NNW,332,0.0,1.0,41,0.00,,,0.00,weatherlink.com 1.10,2013-06-04 23:20:00,
2013-06-04 19:35:00,72.8,48.0,30.02,NNW,332,0.0,0.0,41,0.00,,,0.00,weatherlink.com 1.10,2013-06-04 23:35:00,
2013-06-04 19:50:00,72.2,50.0,30.02,NNW,332,0.0,0.0,45,0.00,,,0.00,weatherlink.com 1.10,2013-06-04 23:50:00,
2013-06-04 20:05:00,71.5,49.0,30.02,NNW,332,0.0,1.0,45,0.00,,,0.00,weatherlink.com 1.10,2013-06-05 00:05:00,
2013-06-04 20:20:00,70.9,48.0,30.02,NNW,332,0.0,0.0,44,0.00,,,0.00,weatherlink.com 1.10,2013-06-05 00:20:00,
2013-06-04 20:35:00,70.3,47.0,30.02,NNW,332,0.0,0.0,44,0.00,,,0.00,weatherlink.com 1.10,2013-06-05 00:35:00,
2013-06-04 20:50:00,69.6,48.0,30.02,NNW,332,0.0,0.0,47,0.00,,,0.00,weatherlink.com 1.10,2013-06-05 00:50:00,
2013-06-04 21:05:00,68.7,49.0,30.02,NNW,332,0.0,0.0,49,0.00,,,0.00,weatherlink.com 1.10,2013-06-05 01:05:00,
2013-06-04 21:21:00,67.9,50.0,30.01,NNW,332,0.0,0.0,53,0.00,,,0.00,weatherlink.com 1.10,2013-06-05 01:21:00,
2013-06-04 21:36:00,67.0,51.0,30.01,NNW,332,0.0,0.0,57,0.00,,,0.00,weatherlink.com 1.10,2013-06-05 01:36:00,
2013-06-04 21:51:00,66.3,51.0,30.02,NNW,332,0.0,0.0,58,0.00,,,0.00,weatherlink.com 1.10,2013-06-05 01:51:00,
2013-06-04 22:06:00,65.6,50.0,30.02,NNW,332,0.0,0.0,58,0.00,,,0.00,weatherlink.com 1.10,2013-06-05 02:06:00,
2013-06-04 22:21:00,64.9,51.0,30.03,NNW,332,0.0,0.0,62,0.00,,,0.00,weatherlink.com 1.10,2013-06-05 02:21:00,
2013-06-04 22:36:00,64.3,52.0,30.03,NNW,332,0.0,0.0,65,0.00,,,0.00,weatherlink.com 1.10,2013-06-05 02:36:00,
2013-06-04 22:51:00,63.6,54.0,30.03,NNW,332,0.0,0.0,70,0.00,,,0.00,weatherlink.com 1.10,2013-06-05 02:51:00,
2013-06-04 23:06:00,63.0,52.0,30.04,NNW,332,0.0,0.0,68,0.00,,,0.00,weatherlink.com 1.10,2013-06-05 03:06:00,
2013-06-04 23:36:00,61.8,52.0,30.04,NNW,332,0.0,0.0,71,0.00,,,0.00,weatherlink.com 1.10,2013-06-05 03:36:00,
2013-06-04 23:51:00,61.4,53.0,30.03,NNW,332,0.0,0.0,74,0.00,,,0.00,weatherlink.com 1.10,2013-06-05 03:51:00,